createdAt,value
2023-03-29T00:00:17.625Z,6.65
2023-03-29T00:01:35.797Z,6.65
2023-03-29T00:02:37.691Z,6.63
2023-03-29T00:03:39.309Z,6.61
2023-03-29T00:04:40.677Z,6.60
2023-03-29T00:05:41.954Z,6.62
2023-03-29T00:06:43.256Z,6.66
2023-03-29T00:07:44.627Z,6.65
2023-03-29T00:08:45.871Z,6.64
2023-03-29T00:09:47.095Z,6.63
2023-03-29T00:10:48.604Z,6.61
2023-03-29T00:11:49.846Z,6.64
2023-03-29T00:12:51.116Z,6.66
2023-03-29T00:13:52.586Z,6.64
2023-03-29T00:14:53.861Z,6.63
2023-03-29T00:15:55.131Z,6.61
2023-03-29T00:16:56.646Z,6.62
2023-03-29T00:17:57.971Z,6.60
2023-03-29T00:18:59.347Z,6.58
2023-03-29T00:20:00.549Z,6.57
2023-03-29T00:21:02.160Z,6.55
2023-03-29T00:22:04.060Z,6.59
2023-03-29T00:23:05.258Z,6.58
2023-03-29T00:24:06.479Z,6.57
2023-03-29T00:25:08.591Z,6.55
2023-03-29T00:26:09.868Z,6.54
2023-03-29T00:27:11.220Z,6.52
2023-03-29T00:28:12.559Z,6.54
2023-03-29T00:29:14.004Z,6.56
2023-03-29T00:30:15.542Z,6.55
2023-03-29T00:31:17.920Z,6.55
2023-03-29T00:32:19.648Z,6.58
2023-03-29T00:33:21.218Z,6.56
2023-03-29T00:34:23.478Z,6.56
2023-03-29T00:35:24.803Z,6.55
2023-03-29T00:36:26.524Z,6.54
2023-03-29T00:37:28.340Z,6.57
2023-03-29T00:38:30.044Z,6.57
2023-03-29T00:39:31.315Z,6.53
2023-03-29T00:40:33.051Z,6.52
2023-03-29T00:41:34.412Z,6.52
2023-03-29T00:42:35.655Z,6.51
2023-03-29T00:43:55.749Z,6.50
2023-03-29T00:45:00.098Z,6.53
2023-03-29T00:46:01.373Z,6.51
2023-03-29T00:47:03.367Z,6.49
2023-03-29T00:48:08.917Z,6.49
2023-03-29T00:49:11.860Z,6.51
2023-03-29T00:50:17.081Z,6.52
2023-03-29T00:51:20.047Z,6.51
2023-03-29T00:52:21.760Z,6.50
2023-03-29T00:53:32.173Z,6.53
2023-03-29T00:54:34.184Z,6.51
2023-03-29T00:55:37.381Z,6.49
2023-03-29T00:56:40.139Z,6.52
2023-03-29T00:57:42.624Z,6.53
2023-03-29T00:58:47.573Z,6.53
2023-03-29T00:59:50.224Z,6.49
2023-03-29T01:00:57.554Z,6.51
2023-03-29T01:02:06.317Z,6.55
2023-03-29T01:03:11.638Z,6.58
2023-03-29T01:04:23.560Z,6.56
2023-03-29T01:05:34.198Z,6.56
2023-03-29T01:06:36.940Z,6.56
2023-03-29T01:07:43.030Z,6.52
2023-03-29T01:08:47.073Z,6.54
2023-03-29T01:09:53.051Z,6.51
2023-03-29T01:10:56.540Z,6.52
2023-03-29T01:12:01.161Z,6.50
2023-03-29T01:13:06.741Z,6.51
2023-03-29T01:14:12.067Z,6.51
2023-03-29T01:15:24.887Z,6.51
2023-03-29T01:16:27.718Z,6.48
2023-03-29T01:17:29.358Z,6.53
2023-03-29T01:18:32.387Z,6.51
2023-03-29T01:19:40.389Z,6.50
2023-03-29T01:21:00.777Z,6.56
2023-03-29T01:22:11.173Z,6.51
2023-03-29T01:23:22.931Z,6.56
2023-03-29T01:24:36.986Z,6.52
2023-03-29T01:25:38.194Z,6.52
2023-03-29T01:26:39.520Z,6.50
2023-03-29T01:27:49.117Z,6.48
2023-03-29T01:29:03.338Z,6.47
2023-03-29T01:30:09.073Z,6.46
2023-03-29T01:31:24.113Z,6.50
2023-03-29T01:32:30.204Z,6.48
2023-03-29T01:33:34.172Z,6.46
2023-03-29T01:34:42.949Z,6.44
2023-03-29T01:35:47.859Z,6.48
2023-03-29T01:36:56.141Z,6.47
2023-03-29T01:38:04.124Z,6.47
2023-03-29T01:39:06.429Z,6.50
2023-03-29T01:40:08.254Z,6.48
2023-03-29T01:41:12.208Z,6.46
2023-03-29T01:42:36.133Z,6.46
2023-03-29T01:43:40.395Z,6.47
2023-03-29T01:44:49.510Z,6.45
2023-03-29T01:45:56.763Z,6.44
2023-03-29T01:47:18.426Z,6.46
2023-03-29T01:48:25.407Z,6.42
2023-03-29T01:49:44.897Z,6.42
2023-03-29T01:50:46.151Z,6.38
2023-03-29T01:52:22.702Z,6.31
2023-03-29T01:53:50.877Z,6.40
2023-03-29T01:55:00.268Z,6.33
2023-03-29T01:56:07.561Z,6.31
2023-03-29T01:57:09.912Z,6.32
2023-03-29T01:58:13.026Z,6.30
2023-03-29T01:59:17.197Z,6.30
2023-03-29T02:00:21.077Z,6.35
2023-03-29T02:01:25.964Z,6.29
2023-03-29T02:02:29.086Z,6.25
2023-03-29T02:03:31.222Z,6.25
2023-03-29T02:04:34.411Z,6.25
2023-03-29T02:05:36.824Z,6.21
2023-03-29T02:06:38.974Z,6.21
2023-03-29T02:07:41.232Z,6.19
2023-03-29T02:08:43.325Z,6.17
2023-03-29T02:09:45.312Z,6.16
2023-03-29T02:10:47.076Z,6.17
2023-03-29T02:11:49.898Z,6.18
2023-03-29T02:12:51.101Z,6.21
2023-03-29T02:13:52.733Z,6.20
2023-03-29T02:14:54.008Z,6.18
2023-03-29T02:15:55.437Z,6.20
2023-03-29T02:16:56.718Z,6.17
2023-03-29T02:17:58.371Z,6.18
2023-03-29T02:18:59.763Z,6.19
2023-03-29T02:20:08.456Z,6.16
2023-03-29T02:21:13.652Z,6.15
2023-03-29T02:22:16.805Z,6.20
2023-03-29T02:23:24.268Z,6.20
2023-03-29T02:24:26.080Z,6.21
2023-03-29T02:25:27.881Z,6.17
2023-03-29T02:26:29.178Z,6.19
2023-03-29T02:27:30.858Z,6.17
2023-03-29T02:28:32.559Z,6.15
2023-03-29T02:29:33.817Z,6.14
2023-03-29T02:30:43.843Z,6.17
2023-03-29T02:32:05.356Z,6.13
2023-03-29T02:33:10.873Z,6.17
2023-03-29T02:34:24.834Z,6.15
2023-03-29T02:35:38.905Z,6.14
2023-03-29T02:36:43.242Z,6.12
2023-03-29T02:37:46.866Z,6.17
2023-03-29T02:38:48.212Z,6.14
2023-03-29T02:39:50.922Z,6.10
2023-03-29T02:40:52.349Z,6.03
2023-03-29T02:41:54.600Z,6.00
2023-03-29T02:42:57.414Z,6.09
2023-03-29T02:43:59.771Z,6.11
2023-03-29T02:45:02.371Z,6.06
2023-03-29T02:46:05.551Z,5.96
2023-03-29T02:47:19.409Z,5.99
2023-03-29T02:48:22.007Z,5.96
2023-03-29T02:49:23.670Z,5.95
2023-03-29T02:50:28.383Z,5.92
2023-03-29T02:51:32.304Z,5.92
2023-03-29T02:52:38.825Z,5.92
2023-03-29T02:53:42.094Z,5.91
2023-03-29T02:54:45.214Z,5.91
2023-03-29T02:55:46.525Z,5.90
2023-03-29T02:56:58.415Z,5.94
2023-03-29T02:58:00.022Z,5.91
2023-03-29T02:59:01.352Z,5.91
2023-03-29T03:00:02.655Z,5.92
2023-03-29T03:01:04.536Z,5.97
2023-03-29T03:02:06.369Z,5.95
2023-03-29T03:03:08.469Z,5.94
2023-03-29T03:04:10.499Z,5.89
2023-03-29T03:05:11.834Z,5.90
2023-03-29T03:06:13.779Z,5.91
2023-03-29T03:07:15.029Z,5.90
2023-03-29T03:08:16.264Z,5.87
2023-03-29T03:09:17.804Z,5.90
2023-03-29T03:10:21.164Z,5.92
2023-03-29T03:11:22.413Z,5.98
2023-03-29T03:12:23.645Z,6.00
2023-03-29T03:13:24.926Z,5.97
2023-03-29T03:14:26.261Z,5.95
2023-03-29T03:15:27.625Z,5.93
2023-03-29T03:16:29.002Z,5.97
2023-03-29T03:17:30.371Z,5.98
2023-03-29T03:18:31.625Z,5.93
2023-03-29T03:19:32.859Z,5.92
2023-03-29T03:20:34.258Z,5.94
2023-03-29T03:21:35.911Z,5.94
2023-03-29T03:22:37.135Z,5.98
2023-03-29T03:23:38.501Z,5.95
2023-03-29T03:24:41.379Z,5.94
2023-03-29T03:25:44.639Z,5.96
2023-03-29T03:26:46.000Z,5.97
2023-03-29T03:27:48.379Z,5.97
2023-03-29T03:28:49.683Z,5.95
2023-03-29T03:30:11.112Z,5.94
2023-03-29T03:31:26.438Z,5.94
2023-03-29T03:32:51.302Z,5.99
2023-03-29T03:34:11.090Z,6.00
2023-03-29T03:35:20.605Z,6.04
2023-03-29T03:36:21.806Z,6.05
2023-03-29T03:37:23.036Z,6.04
2023-03-29T03:38:24.326Z,6.05
2023-03-29T03:39:31.358Z,6.04
2023-03-29T03:40:32.688Z,6.06
2023-03-29T03:41:34.336Z,6.08
2023-03-29T03:42:35.669Z,6.07
2023-03-29T03:43:36.905Z,6.06
2023-03-29T03:44:38.169Z,6.06
2023-03-29T03:45:56.052Z,6.09
2023-03-29T03:46:59.104Z,6.07
2023-03-29T03:48:00.402Z,6.07
2023-03-29T03:49:15.178Z,6.09
2023-03-29T03:50:17.832Z,6.10
2023-03-29T03:51:19.330Z,6.15
2023-03-29T03:52:20.724Z,6.13
2023-03-29T03:53:22.436Z,6.13
2023-03-29T03:54:42.249Z,6.12
2023-03-29T03:56:02.013Z,6.13
2023-03-29T03:57:08.321Z,6.16
2023-03-29T03:58:18.112Z,6.14
2023-03-29T03:59:19.525Z,6.16
2023-03-29T04:00:37.799Z,6.16
2023-03-29T04:01:54.866Z,6.15
2023-03-29T04:02:57.913Z,6.16
2023-03-29T04:03:59.420Z,6.16
2023-03-29T04:05:01.285Z,6.15
2023-03-29T04:06:07.455Z,6.14
2023-03-29T04:07:28.930Z,6.12
2023-03-29T04:08:43.455Z,6.15
2023-03-29T04:09:50.670Z,6.17
2023-03-29T04:11:04.181Z,6.16
2023-03-29T04:12:11.248Z,6.17
2023-03-29T04:13:14.336Z,6.17
2023-03-29T04:14:35.626Z,6.17
2023-03-29T04:15:52.001Z,6.16
2023-03-29T04:16:54.474Z,6.15
2023-03-29T04:18:18.656Z,6.16
2023-03-29T04:19:25.943Z,6.16
2023-03-29T04:20:27.595Z,6.16
2023-03-29T04:21:29.162Z,6.18
2023-03-29T04:22:30.499Z,6.17
2023-03-29T04:23:32.959Z,6.18
2023-03-29T04:24:34.361Z,6.18
2023-03-29T04:25:56.225Z,6.18
2023-03-29T04:27:12.487Z,6.19
2023-03-29T04:28:13.702Z,6.16
2023-03-29T04:29:26.040Z,6.19
2023-03-29T04:30:35.600Z,6.21
2023-03-29T04:31:45.759Z,6.20
2023-03-29T04:32:47.150Z,6.20
2023-03-29T04:33:48.524Z,6.21
2023-03-29T04:34:50.301Z,6.21
2023-03-29T04:35:51.633Z,6.21
2023-03-29T04:36:53.692Z,6.21
2023-03-29T04:37:57.996Z,6.23
2023-03-29T04:38:59.265Z,6.23
2023-03-29T04:40:01.390Z,6.23
2023-03-29T04:41:09.234Z,6.27
2023-03-29T04:42:28.291Z,6.27
2023-03-29T04:43:29.548Z,6.28
2023-03-29T04:44:41.016Z,6.29
2023-03-29T04:45:43.468Z,6.31
2023-03-29T04:46:49.550Z,6.30
2023-03-29T04:47:50.814Z,6.31
2023-03-29T04:48:53.640Z,6.32
2023-03-29T04:50:03.948Z,6.31
2023-03-29T04:51:12.729Z,6.32
2023-03-29T04:52:14.725Z,6.32
2023-03-29T04:53:16.043Z,6.33
2023-03-29T04:54:18.500Z,6.37
2023-03-29T04:55:43.153Z,6.37
2023-03-29T04:56:48.448Z,6.39
2023-03-29T04:58:09.238Z,6.40
2023-03-29T04:59:13.610Z,6.40
2023-03-29T05:00:15.382Z,6.44
2023-03-29T05:01:35.750Z,6.45
2023-03-29T05:02:37.066Z,6.45
2023-03-29T05:03:38.564Z,6.45
2023-03-29T05:04:49.201Z,6.45
2023-03-29T05:05:51.762Z,6.47
2023-03-29T05:06:53.076Z,6.47
2023-03-29T05:07:54.339Z,6.49
2023-03-29T05:09:00.865Z,6.49
2023-03-29T05:10:19.067Z,6.49
2023-03-29T05:11:20.449Z,6.51
2023-03-29T05:12:21.802Z,6.50
2023-03-29T05:13:27.488Z,6.52
2023-03-29T05:14:28.896Z,6.52
2023-03-29T05:15:30.903Z,6.54
2023-03-29T05:16:32.164Z,6.55
2023-03-29T05:17:34.541Z,6.56
2023-03-29T05:18:41.600Z,6.57
2023-03-29T05:19:44.158Z,6.56
2023-03-29T05:20:45.377Z,6.58
2023-03-29T05:21:50.723Z,6.59
2023-03-29T05:22:56.180Z,6.58
2023-03-29T05:24:16.630Z,6.59
2023-03-29T05:25:36.443Z,6.60
2023-03-29T05:26:37.933Z,6.61
2023-03-29T05:27:39.211Z,6.63
2023-03-29T05:28:43.513Z,6.63
2023-03-29T05:29:44.844Z,6.64
2023-03-29T05:31:04.335Z,6.65
2023-03-29T05:32:07.752Z,6.65
2023-03-29T05:33:09.121Z,6.64
2023-03-29T05:34:10.465Z,6.68
2023-03-29T05:35:16.479Z,6.69
2023-03-29T05:36:18.830Z,6.71
2023-03-29T05:37:23.171Z,6.72
2023-03-29T05:38:32.058Z,6.75
2023-03-29T05:39:35.711Z,6.77
2023-03-29T05:40:38.926Z,6.80
2023-03-29T05:42:08.537Z,6.81
2023-03-29T05:43:22.992Z,6.84
2023-03-29T05:44:24.355Z,6.86
2023-03-29T05:45:31.285Z,6.88
2023-03-29T05:46:32.686Z,6.89
2023-03-29T05:47:37.088Z,6.91
2023-03-29T05:48:38.924Z,6.93
2023-03-29T05:49:40.285Z,6.94
2023-03-29T05:50:48.868Z,6.96
2023-03-29T05:51:50.845Z,6.96
2023-03-29T05:52:52.264Z,6.97
2023-03-29T05:53:53.537Z,6.96
2023-03-29T05:54:55.307Z,6.96
2023-03-29T05:55:56.631Z,6.98
2023-03-29T05:57:00.351Z,7.00
2023-03-29T05:58:01.686Z,7.01
2023-03-29T05:59:06.394Z,7.00
2023-03-29T06:00:07.919Z,6.99
2023-03-29T06:01:14.041Z,7.00
2023-03-29T06:02:44.506Z,6.99
2023-03-29T06:03:46.514Z,6.99
2023-03-29T06:04:48.399Z,7.00
2023-03-29T06:06:00.010Z,7.00
2023-03-29T06:07:01.336Z,6.98
2023-03-29T06:08:03.132Z,6.99
2023-03-29T06:09:23.149Z,6.98
2023-03-29T06:10:33.283Z,6.98
2023-03-29T06:11:48.480Z,6.99
2023-03-29T06:13:19.153Z,6.97
2023-03-29T06:14:20.502Z,6.97
2023-03-29T06:15:27.648Z,6.97
2023-03-29T06:16:34.749Z,6.96
2023-03-29T06:17:36.295Z,6.98
2023-03-29T06:18:37.580Z,6.99
2023-03-29T06:19:38.888Z,6.98
2023-03-29T06:20:40.158Z,6.98
2023-03-29T06:21:46.755Z,6.99
2023-03-29T06:22:52.723Z,7.00
2023-03-29T06:23:54.097Z,7.02
2023-03-29T06:24:56.124Z,7.02
2023-03-29T06:26:01.424Z,7.02
2023-03-29T06:27:02.963Z,7.04
2023-03-29T06:28:05.189Z,7.04
2023-03-29T06:29:08.584Z,7.05
2023-03-29T06:30:10.886Z,7.06
2023-03-29T06:31:12.154Z,7.07
2023-03-29T06:32:14.309Z,7.09
2023-03-29T06:33:22.453Z,7.10
2023-03-29T06:34:28.849Z,7.12
2023-03-29T06:36:02.432Z,7.15
2023-03-29T06:37:05.049Z,7.17
2023-03-29T06:38:06.620Z,7.18
2023-03-29T06:39:27.388Z,7.18
2023-03-29T06:40:47.841Z,7.19
2023-03-29T06:41:50.019Z,7.20
2023-03-29T06:42:59.031Z,7.22
2023-03-29T06:44:22.113Z,7.24
2023-03-29T06:45:33.509Z,7.27
2023-03-29T06:46:37.707Z,7.30
2023-03-29T06:47:42.918Z,7.31
2023-03-29T06:48:44.157Z,7.32
2023-03-29T06:49:45.608Z,7.33
2023-03-29T06:51:07.259Z,7.36
2023-03-29T06:52:08.836Z,7.38
2023-03-29T06:53:10.320Z,7.41
2023-03-29T06:54:13.493Z,7.42
2023-03-29T06:55:25.978Z,7.44
2023-03-29T06:56:28.819Z,7.46
2023-03-29T06:57:43.040Z,7.50
2023-03-29T06:58:44.337Z,7.54
2023-03-29T07:00:01.697Z,7.57
2023-03-29T07:01:28.734Z,7.61
2023-03-29T07:02:56.745Z,7.68
2023-03-29T07:03:57.973Z,7.73
2023-03-29T07:05:05.396Z,7.75
2023-03-29T07:06:11.872Z,7.81
2023-03-29T07:07:15.489Z,7.84
2023-03-29T07:08:16.733Z,7.89
2023-03-29T07:09:29.376Z,7.97
2023-03-29T07:10:51.304Z,8.01
2023-03-29T07:11:52.656Z,8.07
2023-03-29T07:12:57.920Z,8.10
2023-03-29T07:13:59.426Z,8.12
2023-03-29T07:15:01.468Z,8.16
2023-03-29T07:16:22.885Z,8.23
2023-03-29T07:17:44.448Z,8.28
2023-03-29T07:18:45.911Z,8.32
2023-03-29T07:19:55.916Z,8.33
2023-03-29T07:21:12.204Z,8.36
2023-03-29T07:22:13.846Z,8.40
2023-03-29T07:23:25.416Z,8.45
2023-03-29T07:24:26.715Z,8.48
2023-03-29T07:25:28.249Z,8.52
2023-03-29T07:26:30.178Z,8.54
2023-03-29T07:27:32.578Z,8.58
2023-03-29T07:28:34.059Z,8.61
2023-03-29T07:29:37.162Z,8.63
2023-03-29T07:30:38.432Z,8.65
2023-03-29T07:31:51.660Z,8.67
2023-03-29T07:33:13.194Z,8.70
2023-03-29T07:34:20.559Z,8.74
2023-03-29T07:35:21.849Z,8.76
2023-03-29T07:36:23.182Z,8.79
2023-03-29T07:37:25.002Z,8.78
2023-03-29T07:38:27.522Z,8.85
2023-03-29T07:39:35.229Z,8.88
2023-03-29T07:40:57.033Z,8.92
2023-03-29T07:42:18.564Z,8.97
2023-03-29T07:43:20.662Z,8.99
2023-03-29T07:44:22.125Z,9.01
2023-03-29T07:45:26.594Z,9.04
2023-03-29T07:46:34.169Z,9.08
2023-03-29T07:47:35.450Z,9.13
2023-03-29T07:48:37.206Z,9.17
2023-03-29T07:49:41.336Z,9.20
2023-03-29T07:50:42.704Z,9.24
2023-03-29T07:51:43.986Z,9.26
2023-03-29T07:52:48.175Z,9.28
2023-03-29T07:53:49.891Z,9.32
2023-03-29T07:55:13.070Z,9.38
2023-03-29T07:56:27.681Z,9.44
2023-03-29T07:57:51.926Z,9.49
2023-03-29T07:58:53.242Z,9.54
2023-03-29T07:59:54.504Z,9.58
2023-03-29T08:01:00.921Z,9.63
2023-03-29T08:02:21.503Z,9.66
2023-03-29T08:03:25.912Z,9.70
2023-03-29T08:04:27.208Z,9.76
2023-03-29T08:05:47.024Z,9.80
2023-03-29T08:06:49.933Z,9.83
2023-03-29T08:07:52.092Z,9.87
2023-03-29T08:09:01.094Z,9.90
2023-03-29T08:10:03.328Z,9.90
2023-03-29T08:11:27.527Z,10.00
2023-03-29T08:12:35.469Z,10.03
2023-03-29T08:13:36.808Z,10.09
2023-03-29T08:14:56.509Z,10.14
2023-03-29T08:16:08.734Z,10.20
2023-03-29T08:17:14.577Z,10.23
2023-03-29T08:18:21.368Z,10.30
2023-03-29T08:19:22.653Z,10.38
2023-03-29T08:20:35.296Z,10.44
2023-03-29T08:21:38.321Z,10.52
2023-03-29T08:22:39.774Z,10.58
2023-03-29T08:23:58.360Z,10.68
2023-03-29T08:25:04.878Z,10.75
2023-03-29T08:26:10.845Z,10.82
2023-03-29T08:27:13.258Z,10.89
2023-03-29T08:28:14.514Z,10.96
2023-03-29T08:29:20.884Z,11.00
2023-03-29T08:30:22.206Z,11.07
2023-03-29T08:31:24.393Z,11.13
2023-03-29T08:32:26.331Z,11.19
2023-03-29T08:33:27.596Z,11.25
2023-03-29T08:34:39.818Z,11.32
2023-03-29T08:35:55.444Z,11.41
2023-03-29T08:37:02.616Z,11.47
2023-03-29T08:38:12.214Z,11.47
2023-03-29T08:39:13.517Z,11.45
2023-03-29T08:40:21.451Z,11.41
2023-03-29T08:41:37.839Z,11.37
2023-03-29T08:42:53.935Z,11.37
2023-03-29T08:44:05.950Z,11.36
2023-03-29T08:45:28.571Z,11.33
2023-03-29T08:46:38.781Z,11.31
2023-03-29T08:48:11.786Z,11.31
2023-03-29T08:49:14.866Z,11.29
2023-03-29T08:50:17.676Z,11.32
2023-03-29T08:51:25.872Z,11.33
2023-03-29T08:52:32.317Z,11.35
2023-03-29T08:53:46.419Z,11.37
2023-03-29T08:54:55.588Z,11.41
2023-03-29T08:55:58.937Z,11.40
2023-03-29T08:57:25.532Z,11.44
2023-03-29T08:58:32.184Z,11.48
2023-03-29T08:59:33.854Z,11.57
2023-03-29T09:00:41.301Z,11.65
2023-03-29T09:01:43.327Z,11.72
2023-03-29T09:02:45.550Z,11.74
2023-03-29T09:03:56.070Z,11.83
2023-03-29T09:05:25.666Z,11.95
2023-03-29T09:06:32.354Z,12.05
2023-03-29T09:07:47.533Z,12.17
2023-03-29T09:08:50.836Z,12.22
2023-03-29T09:09:54.272Z,12.26
2023-03-29T09:11:21.876Z,12.25
2023-03-29T09:12:36.677Z,12.34
2023-03-29T09:13:46.081Z,12.38
2023-03-29T09:14:52.208Z,12.44
2023-03-29T09:16:05.715Z,12.51
2023-03-29T09:17:19.709Z,12.65
2023-03-29T09:18:33.432Z,12.72
2023-03-29T09:19:39.295Z,12.80
2023-03-29T09:21:00.026Z,12.82
2023-03-29T09:22:09.044Z,12.87
2023-03-29T09:23:17.610Z,12.94
2023-03-29T09:24:51.183Z,13.05
2023-03-29T09:26:07.173Z,13.21
2023-03-29T09:27:27.476Z,13.35
2023-03-29T09:28:41.958Z,13.50
2023-03-29T09:29:52.471Z,13.60
2023-03-29T09:31:02.335Z,13.66
2023-03-29T09:32:06.755Z,13.70
2023-03-29T09:33:08.160Z,13.78
2023-03-29T09:34:32.950Z,13.87
2023-03-29T09:35:46.148Z,13.98
2023-03-29T09:36:53.286Z,14.04
2023-03-29T09:37:55.756Z,14.08
2023-03-29T09:38:57.100Z,14.10
2023-03-29T09:40:10.145Z,14.03
2023-03-29T09:41:30.453Z,14.08
2023-03-29T09:42:34.284Z,14.11
2023-03-29T09:43:37.401Z,14.08
2023-03-29T09:44:54.042Z,14.15
2023-03-29T09:46:04.063Z,14.11
2023-03-29T09:47:11.622Z,14.07
2023-03-29T09:48:14.920Z,14.14
2023-03-29T09:49:22.870Z,14.13
2023-03-29T09:50:31.330Z,14.12
2023-03-29T09:51:35.905Z,14.16
2023-03-29T09:52:37.316Z,14.13
2023-03-29T09:53:47.267Z,14.22
2023-03-29T09:55:05.040Z,14.21
2023-03-29T09:56:16.427Z,14.13
2023-03-29T09:57:25.894Z,14.16
2023-03-29T09:58:28.602Z,14.24
2023-03-29T09:59:30.189Z,14.32
2023-03-29T10:00:31.446Z,14.38
2023-03-29T10:01:40.375Z,14.43
2023-03-29T10:02:49.621Z,14.50
2023-03-29T10:03:52.104Z,14.50
2023-03-29T10:04:54.011Z,14.58
2023-03-29T10:05:56.420Z,14.62
2023-03-29T10:06:58.551Z,14.55
2023-03-29T10:08:00.874Z,14.57
2023-03-29T10:09:02.632Z,14.70
2023-03-29T10:10:09.285Z,14.73
2023-03-29T10:11:17.667Z,14.79
2023-03-29T10:12:19.469Z,14.89
2023-03-29T10:13:22.813Z,14.93
2023-03-29T10:14:30.141Z,15.01
2023-03-29T10:15:31.515Z,15.05
2023-03-29T10:16:40.593Z,15.12
2023-03-29T10:17:41.935Z,15.07
2023-03-29T10:18:43.476Z,15.08
2023-03-29T10:19:52.285Z,15.13
2023-03-29T10:20:57.944Z,15.17
2023-03-29T10:22:00.204Z,15.26
2023-03-29T10:23:01.593Z,15.19
2023-03-29T10:24:02.863Z,15.24
2023-03-29T10:25:04.807Z,15.29
2023-03-29T10:26:10.285Z,15.38
2023-03-29T10:27:11.614Z,15.43
2023-03-29T10:28:17.744Z,15.39
2023-03-29T10:29:19.008Z,15.47
2023-03-29T10:30:22.154Z,15.55
2023-03-29T10:31:24.517Z,15.66
2023-03-29T10:32:32.879Z,15.71
2023-03-29T10:33:35.430Z,15.69
2023-03-29T10:34:36.765Z,15.65
2023-03-29T10:35:39.068Z,15.58
2023-03-29T10:36:41.372Z,15.49
2023-03-29T10:37:43.353Z,15.59
2023-03-29T10:38:44.816Z,15.48
2023-03-29T10:39:47.379Z,15.45
2023-03-29T10:40:50.713Z,15.53
2023-03-29T10:41:51.957Z,15.48
2023-03-29T10:42:53.177Z,15.57
2023-03-29T10:43:54.440Z,15.57
2023-03-29T10:44:59.248Z,15.54
2023-03-29T10:46:19.748Z,15.45
2023-03-29T10:47:21.608Z,15.34
2023-03-29T10:48:28.637Z,15.32
2023-03-29T10:49:29.880Z,15.30
2023-03-29T10:50:35.630Z,15.30
2023-03-29T10:51:36.951Z,15.35
2023-03-29T10:52:39.789Z,15.40
2023-03-29T10:53:41.172Z,15.42
2023-03-29T10:54:42.752Z,15.45
2023-03-29T10:55:50.017Z,15.61
2023-03-29T10:56:58.919Z,15.67
2023-03-29T10:58:00.166Z,15.79
2023-03-29T10:59:04.158Z,15.94
2023-03-29T11:00:05.466Z,16.08
2023-03-29T11:01:11.549Z,16.19
2023-03-29T11:02:15.669Z,16.13
2023-03-29T11:03:21.591Z,16.19
2023-03-29T11:04:23.149Z,16.23
2023-03-29T11:05:33.636Z,16.27
2023-03-29T11:06:39.971Z,16.37
2023-03-29T11:07:41.161Z,16.45
2023-03-29T11:08:58.165Z,16.48
2023-03-29T11:10:18.393Z,16.50
2023-03-29T11:11:28.895Z,16.59
2023-03-29T11:12:55.445Z,16.38
2023-03-29T11:14:02.758Z,16.20
2023-03-29T11:15:16.261Z,16.12
2023-03-29T11:16:31.771Z,16.18
2023-03-29T11:17:32.971Z,16.21
2023-03-29T11:18:43.432Z,16.19
2023-03-29T11:20:05.196Z,16.26
2023-03-29T11:21:22.837Z,16.32
2023-03-29T11:22:30.642Z,16.35
2023-03-29T11:23:34.635Z,16.38
2023-03-29T11:24:50.893Z,16.46
2023-03-29T11:25:57.923Z,16.52
2023-03-29T11:27:05.168Z,16.63
2023-03-29T11:28:25.092Z,16.86
2023-03-29T11:29:52.372Z,16.87
2023-03-29T11:31:04.494Z,17.05
2023-03-29T11:32:15.003Z,17.13
2023-03-29T11:33:21.804Z,17.30
2023-03-29T11:34:32.611Z,17.24
2023-03-29T11:35:42.956Z,17.31
2023-03-29T11:37:02.862Z,17.38
2023-03-29T11:38:06.855Z,17.53
2023-03-29T11:39:08.104Z,17.61
2023-03-29T11:40:12.191Z,17.77
2023-03-29T11:41:16.305Z,17.91
2023-03-29T11:42:23.309Z,18.00
2023-03-29T11:43:27.567Z,18.14
2023-03-29T11:44:30.207Z,18.27
2023-03-29T11:45:51.996Z,18.28
2023-03-29T11:47:00.089Z,18.23
2023-03-29T11:48:02.410Z,18.20
2023-03-29T11:49:12.243Z,18.14
2023-03-29T11:50:22.839Z,18.14
2023-03-29T11:51:34.671Z,18.17
2023-03-29T11:52:37.491Z,18.12
2023-03-29T11:53:45.650Z,18.07
2023-03-29T11:54:47.017Z,18.04
2023-03-29T11:55:50.344Z,18.04
2023-03-29T11:57:01.707Z,18.09
2023-03-29T11:58:05.796Z,17.91
2023-03-29T11:59:14.135Z,17.78
2023-03-29T12:00:39.700Z,17.73
2023-03-29T12:01:52.333Z,17.83
2023-03-29T12:03:00.783Z,17.82
2023-03-29T12:04:06.048Z,17.80
2023-03-29T12:05:17.752Z,17.63
2023-03-29T12:06:31.511Z,17.69
2023-03-29T12:07:36.584Z,17.50
2023-03-29T12:08:44.525Z,17.69
2023-03-29T12:09:50.220Z,17.70
2023-03-29T12:10:56.212Z,17.70
2023-03-29T12:12:03.499Z,17.65
2023-03-29T12:13:29.292Z,17.55
2023-03-29T12:14:43.156Z,17.30
2023-03-29T12:15:53.788Z,17.27
2023-03-29T12:17:00.971Z,17.31
2023-03-29T12:18:06.889Z,17.22
2023-03-29T12:19:21.086Z,17.29
2023-03-29T12:20:23.786Z,17.31
2023-03-29T12:21:27.608Z,17.29
2023-03-29T12:22:29.144Z,17.27
2023-03-29T12:23:31.604Z,17.30
2023-03-29T12:24:34.506Z,17.29
2023-03-29T12:25:44.812Z,17.21
2023-03-29T12:27:18.414Z,17.18
2023-03-29T12:28:38.355Z,17.20
2023-03-29T12:29:39.597Z,17.27
2023-03-29T12:30:48.785Z,17.38
2023-03-29T12:31:59.741Z,17.44
2023-03-29T12:33:07.821Z,17.55
2023-03-29T12:34:41.345Z,17.61
2023-03-29T12:36:18.136Z,17.57
2023-03-29T12:37:34.269Z,17.51
2023-03-29T12:38:53.920Z,17.55
2023-03-29T12:40:15.208Z,17.43
2023-03-29T12:41:36.576Z,17.51
2023-03-29T12:43:04.804Z,17.50
2023-03-29T12:44:26.066Z,17.50
2023-03-29T12:45:42.067Z,17.59
2023-03-29T12:46:43.632Z,17.58
2023-03-29T12:47:45.380Z,17.63
2023-03-29T12:48:49.390Z,17.72
2023-03-29T12:49:58.067Z,17.72
2023-03-29T12:51:00.450Z,17.63
2023-03-29T12:52:08.145Z,17.59
2023-03-29T12:53:23.871Z,17.69
2023-03-29T12:54:28.325Z,17.76
2023-03-29T12:55:31.443Z,17.77
2023-03-29T12:56:39.253Z,17.75
2023-03-29T12:57:41.933Z,17.85
2023-03-29T12:58:52.029Z,17.88
2023-03-29T12:59:53.341Z,17.95
2023-03-29T13:01:17.707Z,18.11
2023-03-29T13:02:18.958Z,18.18
2023-03-29T13:03:20.374Z,18.24
2023-03-29T13:04:21.806Z,18.33
2023-03-29T13:05:31.392Z,18.37
2023-03-29T13:06:34.289Z,18.33
2023-03-29T13:07:45.622Z,18.32
2023-03-29T13:08:57.091Z,18.33
2023-03-29T13:09:59.576Z,18.43
2023-03-29T13:11:00.881Z,18.46
2023-03-29T13:12:17.332Z,18.38
2023-03-29T13:13:21.673Z,18.38
2023-03-29T13:14:25.244Z,18.43
2023-03-29T13:15:26.937Z,18.44
2023-03-29T13:16:33.518Z,18.56
2023-03-29T13:17:45.066Z,18.58
2023-03-29T13:19:05.015Z,18.63
2023-03-29T13:20:18.581Z,18.68
2023-03-29T13:21:26.564Z,18.68
2023-03-29T13:22:33.522Z,18.74
2023-03-29T13:23:55.134Z,18.78
2023-03-29T13:25:05.412Z,18.68
2023-03-29T13:26:06.677Z,18.59
2023-03-29T13:27:16.769Z,18.58
2023-03-29T13:28:27.389Z,18.52
2023-03-29T13:29:47.026Z,18.23
2023-03-29T13:30:48.262Z,18.18
2023-03-29T13:32:04.197Z,18.15
2023-03-29T13:33:24.348Z,18.16
2023-03-29T13:34:44.914Z,18.08
2023-03-29T13:35:48.970Z,18.08
2023-03-29T13:36:57.641Z,18.02
2023-03-29T13:37:58.911Z,17.95
2023-03-29T13:39:02.258Z,17.94
2023-03-29T13:40:23.498Z,17.84
2023-03-29T13:41:31.872Z,17.84
2023-03-29T13:42:33.314Z,17.85
2023-03-29T13:43:36.217Z,17.76
2023-03-29T13:44:44.199Z,17.74
2023-03-29T13:45:51.124Z,17.64
2023-03-29T13:47:02.924Z,17.59
2023-03-29T13:48:23.013Z,17.59
2023-03-29T13:49:25.731Z,17.50
2023-03-29T13:50:34.566Z,17.42
2023-03-29T13:51:47.473Z,17.41
2023-03-29T13:53:18.206Z,17.33
2023-03-29T13:54:38.359Z,17.43
2023-03-29T13:55:48.121Z,17.40
2023-03-29T13:57:18.740Z,17.44
2023-03-29T13:58:28.893Z,17.52
2023-03-29T13:59:39.418Z,17.49
2023-03-29T14:00:45.264Z,17.45
2023-03-29T14:01:49.762Z,17.35
2023-03-29T14:03:02.781Z,17.41
2023-03-29T14:04:05.542Z,17.46
2023-03-29T14:05:09.492Z,17.44
2023-03-29T14:06:13.191Z,17.38
2023-03-29T14:07:14.922Z,17.36
2023-03-29T14:08:16.116Z,17.36
2023-03-29T14:09:17.492Z,17.38
2023-03-29T14:10:26.537Z,17.30
2023-03-29T14:11:29.087Z,17.19
2023-03-29T14:12:33.281Z,17.17
2023-03-29T14:13:34.647Z,17.00
2023-03-29T14:14:37.209Z,16.96
2023-03-29T14:15:54.097Z,16.92
2023-03-29T14:16:56.176Z,16.85
2023-03-29T14:18:00.340Z,16.81
2023-03-29T14:19:03.571Z,16.77
2023-03-29T14:20:05.567Z,16.74
2023-03-29T14:21:07.432Z,16.67
2023-03-29T14:22:12.785Z,16.64
2023-03-29T14:23:18.206Z,16.61
2023-03-29T14:24:25.019Z,16.64
2023-03-29T14:25:29.067Z,16.63
2023-03-29T14:26:31.565Z,16.58
2023-03-29T14:27:35.606Z,16.54
2023-03-29T14:28:36.902Z,16.51
2023-03-29T14:29:38.152Z,16.44
2023-03-29T14:30:45.099Z,16.41
2023-03-29T14:31:46.400Z,16.34
2023-03-29T14:32:48.520Z,16.37
2023-03-29T14:33:53.403Z,16.47
2023-03-29T14:34:56.421Z,16.52
2023-03-29T14:35:59.884Z,16.44
2023-03-29T14:37:01.293Z,16.44
2023-03-29T14:38:02.714Z,16.48
2023-03-29T14:39:05.956Z,16.53
2023-03-29T14:40:14.929Z,16.59